This is the latest recevied weather packets stored in our database for station/object W2JGA. If no packets are shown the sender has not sent any weather packets the latest 10 day(s).
| Time | Temp. | Humidity | Pressure | Rain* | Wind** | Luminosity | Snow |
|---|---|---|---|---|---|---|---|
| 1778036767 | 20° C | 40% | 1014.7 hPa | 0 mm | - | 0 W/m² | - |
| 1778036463 | 20.56° C | 39% | 1014.7 hPa | 0 mm | - | 0 W/m² | - |
| 1778036160 | 20.56° C | 39% | 1014.3 hPa | 0 mm | - | 0 W/m² | - |
| 1778035856 | 20.56° C | 38% | 1014.3 hPa | 0 mm | - | 0 W/m² | - |
| 1778035554 | 20.56° C | 38% | 1014.3 hPa | 0 mm | - | 0 W/m² | - |
| 1778035250 | 20.56° C | 38% | 1014.3 hPa | 0 mm | - | 0 W/m² | - |
| 1778034945 | 20.56° C | 38% | 1014.3 hPa | 0 mm | - | 0 W/m² | - |
| 1778034643 | 20.56° C | 38% | 1014.3 hPa | 0 mm | - | 0 W/m² | - |
| 1778034341 | 21.11° C | 38% | 1013.9 hPa | 0 mm | - | 0 W/m² | - |
| 1778034038 | 21.11° C | 38% | 1013.9 hPa | 0 mm | - | 0 W/m² | - |
| 1778033736 | 21.11° C | 38% | 1013.9 hPa | 0 mm | - | 0 W/m² | - |
| 1778033433 | 20.56° C | 38% | 1013.9 hPa | 0 mm | - | 2 W/m² | - |
| 1778033130 | 21.11° C | 39% | 1013.9 hPa | 0 mm | - | 4 W/m² | - |
| 1778032827 | 21.11° C | 39% | 1013.6 hPa | 0 mm | - | 7 W/m² | - |
| 1778032525 | 21.11° C | 39% | 1013.6 hPa | 0 mm | - | 13 W/m² | - |
| 1778032221 | 21.67° C | 39% | 1013.2 hPa | 0 mm | - | 24 W/m² | - |
| 1778031919 | 21.67° C | 39% | 1013.2 hPa | 0 mm | - | 35 W/m² | - |
| 1778031615 | 21.67° C | 39% | 1013.2 hPa | 0 mm | - | 41 W/m² | - |
| 1778031313 | 21.67° C | 39% | 1013.2 hPa | 0 mm | - | 43 W/m² | - |
| 1778031010 | 21.67° C | 39% | 1013.2 hPa | 0 mm | - | 58 W/m² | - |
| 1778030705 | 21.67° C | 39% | 1013.2 hPa | 0 mm | - | 31 W/m² | - |
| 1778030403 | 21.67° C | 39% | 1013.6 hPa | 0 mm | - | 32 W/m² | - |
| 1778030100 | 22.22° C | 39% | 1013.2 hPa | 0 mm | - | 35 W/m² | - |
| 1778029796 | 22.22° C | 38% | 1013.2 hPa | 0 mm | - | 125 W/m² | - |
| 1778029496 | 22.78° C | 37% | 1012.9 hPa | 0 mm | - | 139 W/m² | - |
* Rain latest hour (hover to see other rain measurements)
** Current wind speed in m/s (hover to see current wind gust speed)